This is the latest recevied weather packets stored in our database for station/object DH8TOM-3. If no packets are shown the sender has not sent any weather packets the latest 10 day(s).
| Time | Temp. | Humidity | Pressure | Rain* | Wind** | Luminosity | Snow |
|---|---|---|---|---|---|---|---|
| 1777540366 | 16.67° C | 41% | 1031.5 hPa | 0 mm | - | - | - |
| 1777540065 | 16.67° C | 41% | 1031.5 hPa | 0 mm | - | - | - |
| 1777539764 | 16.11° C | 37% | 1031.5 hPa | 0 mm | - | - | - |
| 1777539464 | 16.11° C | 37% | 1031.5 hPa | 0 mm | - | - | - |
| 1777539162 | 16.11° C | 36% | 1031.6 hPa | 0 mm | - | - | - |
| 1777538862 | 16.11° C | 36% | 1031.6 hPa | 0 mm | - | - | - |
| 1777538560 | 16.11° C | 36% | 1031.6 hPa | 0 mm | - | - | - |
| 1777538259 | 16.11° C | 36% | 1031.6 hPa | 0 mm | - | - | - |
| 1777537958 | 15.56° C | 35% | 1031.6 hPa | 0 mm | - | - | - |
| 1777537657 | 15.56° C | 35% | 1031.6 hPa | 0 mm | - | - | - |
| 1777537357 | 15° C | 37% | 1031.7 hPa | 0 mm | - | - | - |
| 1777537055 | 15° C | 37% | 1031.7 hPa | 0 mm | - | - | - |
| 1777536754 | 14.44° C | 39% | 1031.7 hPa | 0 mm | - | - | - |
| 1777536453 | 14.44° C | 39% | 1031.7 hPa | 0 mm | - | - | - |
| 1777536152 | 14.44° C | 38% | 1031.7 hPa | 0 mm | - | - | - |
| 1777535851 | 14.44° C | 38% | 1031.7 hPa | 0 mm | - | - | - |
| 1777535550 | 13.89° C | 39% | 1031.8 hPa | 0 mm | - | - | - |
| 1777535249 | 13.89° C | 39% | 1031.8 hPa | 0 mm | - | - | - |
| 1777534948 | 13.33° C | 37% | 1031.7 hPa | 0 mm | - | - | - |
| 1777534646 | 13.33° C | 37% | 1031.7 hPa | 0 mm | - | - | - |
| 1777534346 | 11.67° C | 41% | 1031.7 hPa | 0 mm | - | - | - |
| 1777534045 | 11.67° C | 41% | 1031.7 hPa | 0 mm | - | - | - |
| 1777533744 | 10° C | 46% | 1031.8 hPa | 0 mm | - | - | - |
| 1777533443 | 10° C | 46% | 1031.8 hPa | 0 mm | - | - | - |
| 1777533142 | 7.78° C | 49% | 1031.7 hPa | 0 mm | - | - | - |
* Rain latest hour (hover to see other rain measurements)
** Current wind speed in m/s (hover to see current wind gust speed)